Daggett, Michigan
Current Conditions -  °F | °C
As of 2:15 PM on Monday 24 Nov 2014 (Local Time) from KMNM Reporting Station
Overcast Overcast  
Wind Chill: 31°   Ceiling: 2400
Heat Index: 37°   Visibility: 10mi
Dew Point: 32°   Wind: 8mph
Humidity: 81%   Direction: 340°NNW
Pressure: 29.13"   Gusts: 18mph
Location:  45.46°N, 87.61°W
Report Text: KMNM 242015Z AUTO 34007G16KT 10SM FEW016 OVC024 03/00 A2913 RMK AO1
Loading
Personal Weather Stations






























Interactive Weather Map New forecast layout! Learn more

10-Day Weather Forecast

Advertisements
Track Severe Weather on mobile